Time,TemperatureF,DewpointF,PressureIn,WindDirection,WindDirectionDegrees,WindSpeedMPH,WindSpeedGustMPH,Humidity,HourlyPrecipIn,Conditions,Clouds,dailyrainin,SoftwareType,DateUTC
2013-08-02 10:00:00,76.0,63.0,-100.00,WNW,291,0.0,-999.0,64,-99.99,,,-99.99,,2013-08-02 14:00:00,
2013-08-02 10:32:00,76.0,63.0,-100.00,WNW,291,0.0,-999.0,64,-99.99,,,-99.99,,2013-08-02 14:32:00,
2013-08-02 10:53:00,76.0,63.0,-100.00,WNW,291,0.0,-999.0,64,-99.99,,,-99.99,,2013-08-02 14:53:00,
2013-08-02 11:00:00,78.0,60.0,-100.00,WNW,283,1.0,6.0,54,0.00,,,-99.99,,2013-08-02 15:00:00,
2013-08-02 11:32:00,78.0,60.0,-100.00,WNW,283,1.0,6.0,54,0.00,,,-99.99,,2013-08-02 15:32:00,
2013-08-02 11:43:00,78.0,60.0,-100.00,WNW,283,1.0,6.0,54,0.00,,,-99.99,,2013-08-02 15:43:00,
2013-08-02 11:52:00,78.0,60.0,-100.00,WNW,283,1.0,6.0,54,0.00,,,-99.99,,2013-08-02 15:52:00,
2013-08-02 12:00:00,80.0,61.0,-100.00,NW,315,5.0,-999.0,54,-99.99,,,-99.99,,2013-08-02 16:00:00,
2013-08-02 12:32:00,80.0,61.0,-100.00,NW,315,5.0,-999.0,54,-99.99,,,-99.99,,2013-08-02 16:32:00,
2013-08-02 12:43:00,80.0,61.0,-100.00,NW,315,5.0,-999.0,54,-99.99,,,-99.99,,2013-08-02 16:43:00,
2013-08-02 12:53:00,80.0,61.0,-100.00,NW,315,5.0,-999.0,54,-99.99,,,-99.99,,2013-08-02 16:53:00,
2013-08-02 13:00:00,81.0,62.0,-100.00,NNE,20,4.0,-999.0,52,-99.99,,,-99.99,,2013-08-02 17:00:00,
2013-08-02 13:35:00,81.0,62.0,-100.00,NNE,20,4.0,-999.0,52,-99.99,,,-99.99,,2013-08-02 17:35:00,
2013-08-02 13:43:00,81.0,62.0,-100.00,NNE,20,4.0,-999.0,52,-99.99,,,-99.99,,2013-08-02 17:43:00,
2013-08-02 13:52:00,81.0,62.0,-100.00,NNE,20,4.0,-999.0,52,-99.99,,,-99.99,,2013-08-02 17:52:00,
2013-08-02 14:00:00,83.0,58.0,-100.00,WSW,253,8.0,-999.0,44,-99.99,,,-99.99,,2013-08-02 18:00:00,
2013-08-02 14:43:00,83.0,58.0,-100.00,WSW,253,8.0,-999.0,44,-99.99,,,-99.99,,2013-08-02 18:43:00,
2013-08-02 14:52:00,83.0,58.0,-100.00,WSW,253,8.0,-999.0,44,-99.99,,,-99.99,,2013-08-02 18:52:00,
2013-08-02 15:00:00,83.0,60.0,-100.00,West,270,4.0,-999.0,45,-99.99,,,-99.99,,2013-08-02 19:00:00,
2013-08-02 15:33:00,83.0,60.0,-100.00,West,270,4.0,-999.0,45,-99.99,,,-99.99,,2013-08-02 19:33:00,
2013-08-02 15:43:00,83.0,60.0,-100.00,West,270,4.0,-999.0,45,-99.99,,,-99.99,,2013-08-02 19:43:00,
2013-08-02 15:52:00,83.0,60.0,-100.00,West,270,4.0,-999.0,45,-99.99,,,-99.99,,2013-08-02 19:52:00,
2013-08-02 16:00:00,82.0,61.0,-100.00,West,264,5.0,-999.0,48,-99.99,,,-99.99,,2013-08-02 20:00:00,
2013-08-02 16:33:00,82.0,61.0,-100.00,West,264,5.0,-999.0,48,-99.99,,,-99.99,,2013-08-02 20:33:00,
2013-08-02 16:43:00,82.0,61.0,-100.00,West,264,5.0,-999.0,48,-99.99,,,-99.99,,2013-08-02 20:43:00,
2013-08-02 16:52:00,82.0,61.0,-100.00,West,264,5.0,-999.0,48,-99.99,,,-99.99,,2013-08-02 20:52:00,
2013-08-02 17:00:00,81.0,59.0,-100.00,South,176,2.0,-999.0,48,-99.99,,,-99.99,,2013-08-02 21:00:00,
2013-08-02 17:43:00,81.0,59.0,-100.00,South,176,2.0,-999.0,48,-99.99,,,-99.99,,2013-08-02 21:43:00,
2013-08-02 17:53:00,81.0,59.0,-100.00,South,176,2.0,-999.0,48,-99.99,,,-99.99,,2013-08-02 21:53:00,
2013-08-02 18:00:00,80.0,61.0,-100.00,SW,228,6.0,-999.0,52,-99.99,,,-99.99,,2013-08-02 22:00:00,
2013-08-02 18:32:00,80.0,61.0,-100.00,SW,228,6.0,-999.0,52,-99.99,,,-99.99,,2013-08-02 22:32:00,
2013-08-02 18:43:00,80.0,61.0,-100.00,SW,228,6.0,-999.0,52,-99.99,,,-99.99,,2013-08-02 22:43:00,
2013-08-02 18:52:00,80.0,61.0,-100.00,SW,228,6.0,-999.0,52,-99.99,,,-99.99,,2013-08-02 22:52:00,
2013-08-02 19:00:00,80.0,60.0,-100.00,WSW,245,7.0,-999.0,51,-99.99,,,-99.99,,2013-08-02 23:00:00,
2013-08-02 19:32:00,80.0,60.0,-100.00,WSW,245,7.0,-999.0,51,-99.99,,,-99.99,,2013-08-02 23:32:00,
2013-08-02 19:44:00,80.0,60.0,-100.00,WSW,245,7.0,-999.0,51,-99.99,,,-99.99,,2013-08-02 23:44:00,
2013-08-02 19:53:00,80.0,60.0,-100.00,WSW,245,7.0,-999.0,51,-99.99,,,-99.99,,2013-08-02 23:53:00,
2013-08-02 20:00:00,77.0,62.0,-100.00,West,281,0.0,-999.0,59,-99.99,,,-99.99,,2013-08-03 00:00:00,
2013-08-02 20:33:00,77.0,62.0,-100.00,West,281,0.0,-999.0,59,-99.99,,,-99.99,,2013-08-03 00:33:00,
2013-08-02 20:43:00,77.0,62.0,-100.00,West,281,0.0,-999.0,59,-99.99,,,-99.99,,2013-08-03 00:43:00,
2013-08-02 20:52:00,77.0,62.0,-100.00,West,281,0.0,-999.0,59,-99.99,,,-99.99,,2013-08-03 00:52:00,
2013-08-02 21:00:00,75.0,62.0,-100.00,WSW,255,2.0,-999.0,65,-99.99,,,-99.99,,2013-08-03 01:00:00,
2013-08-02 21:33:00,75.0,62.0,-100.00,WSW,255,2.0,-999.0,65,-99.99,,,-99.99,,2013-08-03 01:33:00,
2013-08-02 21:43:00,75.0,62.0,-100.00,WSW,255,2.0,-999.0,65,-99.99,,,-99.99,,2013-08-03 01:43:00,
2013-08-02 21:53:00,75.0,62.0,-100.00,WSW,255,2.0,-999.0,65,-99.99,,,-99.99,,2013-08-03 01:53:00,
2013-08-02 22:00:00,74.0,63.0,-100.00,SSE,158,0.0,-999.0,67,-99.99,,,-99.99,,2013-08-03 02:00:00,
2013-08-02 22:32:00,74.0,63.0,-100.00,SSE,158,0.0,-999.0,67,-99.99,,,-99.99,,2013-08-03 02:32:00,
2013-08-02 22:43:00,74.0,63.0,-100.00,SSE,158,0.0,-999.0,67,-99.99,,,-99.99,,2013-08-03 02:43:00,
2013-08-02 22:53:00,74.0,63.0,-100.00,SSE,158,0.0,-999.0,67,-99.99,,,-99.99,,2013-08-03 02:53:00,
2013-08-02 23:00:00,72.0,63.0,-100.00,SW,224,0.0,-999.0,73,-99.99,,,-99.99,,2013-08-03 03:00:00,
2013-08-02 23:32:00,72.0,63.0,-100.00,SW,224,0.0,-999.0,73,-99.99,,,-99.99,,2013-08-03 03:32:00,
2013-08-02 23:43:00,72.0,63.0,-100.00,SW,224,0.0,-999.0,73,-99.99,,,-99.99,,2013-08-03 03:43:00,
2013-08-02 23:53:00,72.0,63.0,-100.00,SW,224,0.0,-999.0,73,-99.99,,,-99.99,,2013-08-03 03:53:00,